Terminal Aerodrome Forecast
Issued by NWS

Home | Current Version | Previous Version | Graphics & Text | Print | Product List | Glossary On
Versions: 1 2 3 4 5 6 7 8 9 10 11 12 13 14 15 16 17 18
596
FTUS43 KFGF 142321
TAFBJI
TAF
KBJI 142321Z 1500/1524 20005KT 3SM BR OVC004
     FM150100 19005KT 1SM BR OVC003
     FM150200 22005KT 1/2SM FG OVC003
     FM150400 24005KT 1SM BR OVC003
     FM150600 28007KT P6SM OVC008
     FM150800 28007KT P6SM BKN015
     FM151100 29013KT P6SM BKN020
     FM151400 30013G22KT P6SM OVC020=

USA.gov is the U.S. government's official web portal to all federal, state and local government web resources and services.